createdAt,value
2023-08-28T00:02:40.471Z,13.4
2023-08-28T01:22:41.991Z,13.4
2023-08-28T02:32:43.467Z,12.2
2023-08-28T02:42:43.648Z,12.2
2023-08-28T05:22:46.819Z,11.8
2023-08-28T05:42:47.214Z,12.2
2023-08-28T06:42:48.440Z,13.5
2023-08-28T07:02:48.921Z,14.3
2023-08-28T07:22:49.226Z,14.9
2023-08-28T07:52:49.804Z,15.3
2023-08-28T08:02:50.042Z,15.7
2023-08-28T08:22:51.998Z,16
2023-08-28T08:32:50.598Z,16.2
2023-08-28T08:42:50.795Z,16.3
2023-08-28T08:52:51.000Z,16.3
2023-08-28T09:02:51.238Z,17
2023-08-28T09:12:51.404Z,16.9
2023-08-28T09:22:53.617Z,17.3
2023-08-28T09:32:51.803Z,17.6
2023-08-28T09:42:51.998Z,17.7
2023-08-28T09:52:52.177Z,17.8
2023-08-28T10:02:52.398Z,18.1
2023-08-28T10:12:52.609Z,18.1
2023-08-28T10:22:52.798Z,18.2
2023-08-28T10:32:53.136Z,18.3
2023-08-28T10:42:53.166Z,18.5
2023-08-28T10:52:53.359Z,18.7
2023-08-28T11:02:53.593Z,18.8
2023-08-28T11:12:53.767Z,19
2023-08-28T11:22:53.960Z,18.9
2023-08-28T11:32:54.247Z,19.4
2023-08-28T11:42:54.364Z,19.6
2023-08-28T12:02:54.839Z,18.8
2023-08-28T12:12:54.975Z,19.3
2023-08-28T12:22:55.129Z,19.4
2023-08-28T12:32:55.336Z,19.3
2023-08-28T12:42:55.531Z,19.3
2023-08-28T12:52:55.730Z,19.4
2023-08-28T13:02:56.039Z,19.5
2023-08-28T13:12:56.107Z,19.4
2023-08-28T13:22:56.325Z,19.2
2023-08-28T13:42:56.707Z,18.9
2023-08-28T13:52:56.906Z,18.9
2023-08-28T14:02:57.268Z,18.8
2023-08-28T14:12:57.333Z,18.8
2023-08-28T14:22:57.490Z,19
2023-08-28T14:32:57.792Z,19
2023-08-28T14:42:57.935Z,19
2023-08-28T14:52:58.136Z,19
2023-08-28T15:12:58.498Z,19.1
2023-08-28T15:22:58.717Z,19
2023-08-28T15:32:59.143Z,19.1
2023-08-28T15:42:59.073Z,19
2023-08-28T15:52:59.308Z,19
2023-08-28T16:02:59.518Z,18.8
2023-08-28T16:12:59.713Z,18.7
2023-08-28T16:22:59.941Z,18.6
2023-08-28T16:33:00.083Z,18.4
2023-08-28T16:43:00.241Z,18.4
2023-08-28T16:53:00.439Z,18.4
2023-08-28T17:03:00.655Z,18.4
2023-08-28T17:13:00.867Z,18.2
2023-08-28T17:23:01.042Z,18
2023-08-28T17:33:01.241Z,17.9
2023-08-28T17:53:01.925Z,17.6
2023-08-28T18:03:08.192Z,17.3
2023-08-28T18:13:02.259Z,17.1
2023-08-28T18:23:02.652Z,16.8
2023-08-28T18:33:02.963Z,16.5
2023-08-28T18:43:04.688Z,16.2
2023-08-28T18:53:03.017Z,16.1
2023-08-28T19:03:03.154Z,15.8
2023-08-28T19:13:03.222Z,15.9
2023-08-28T19:23:03.434Z,15.8
2023-08-28T19:33:03.663Z,15.6
2023-08-28T19:43:03.804Z,15.5
2023-08-28T19:53:05.745Z,15.6
2023-08-28T20:03:04.252Z,15.6
2023-08-28T20:13:04.401Z,15.6
2023-08-28T20:23:04.655Z,15.6
2023-08-28T20:33:04.829Z,15.5
2023-08-28T20:43:05.004Z,15.2
2023-08-28T20:53:05.204Z,15.2
2023-08-28T21:03:05.451Z,15
2023-08-28T21:13:05.659Z,15
2023-08-28T21:23:05.789Z,15
2023-08-28T21:33:06.021Z,14.8
2023-08-28T21:43:06.193Z,14.8
2023-08-28T21:53:06.382Z,14.8
2023-08-28T22:03:06.678Z,14.7
2023-08-28T22:13:06.804Z,14.7
2023-08-28T22:23:06.986Z,14.7
2023-08-28T22:33:07.319Z,14.6
2023-08-28T22:43:07.388Z,14.4
2023-08-28T22:53:07.579Z,14.3
2023-08-28T23:03:07.923Z,14.3
2023-08-28T23:13:07.977Z,14.3
2023-08-28T23:33:08.412Z,13.9
2023-08-28T23:43:08.582Z,13.7
2023-08-28T23:53:08.778Z,13.7
